| time (UTC) | temp C | wind direction | speed KPH | gust KPH | rain 1hr cm | rain 24hr cm | rain mn cm | humidity % | barometer mb |
| 20260507140006 | 13 | 103 | 3.2 | 11.3 | 0.03 | 0.43 | 0.36 | 91 | 1012.0 |
| 20260507134508 | 13 | 53 | 1.6 | 11.3 | 0.03 | 0.43 | 0.36 | 92 | 1011.7 |
| 20260507133009 | 13 | 360 | 1.6 | 6.4 | 0.03 | 0.43 | 0.36 | 92 | 1011.6 |
| 20260507131517 | 13 | 316 | 1.6 | 6.4 | 0.05 | 0.43 | 0.36 | 93 | 1011.8 |
| 20260507130023 | 13 | 350 | 1.6 | 6.4 | 0.03 | 0.41 | 0.33 | 92 | 1011.5 |
| 20260507124503 | 13 | 32 | 1.6 | 8.0 | 0.05 | 0.41 | 0.33 | 93 | 1011.3 |
| 20260507123008 | 13 | 117 | 1.6 | 9.7 | 0.05 | 0.41 | 0.33 | 93 | 1011.5 |
| 20260507121514 | 13 | 1 | 3.2 | 8.0 | 0.05 | 0.38 | 0.30 | 92 | 1011.5 |
| 20260507120019 | 13 | 359 | 1.6 | 11.3 | 0.05 | 0.38 | 0.30 | 92 | 1011.5 |
| 20260507114522 | 13 | 20 | 1.6 | 11.3 | 0.05 | 0.36 | 0.28 | 92 | 1011.1 |
| 20260507113006 | 14 | 360 | 1.6 | 9.7 | 0.05 | 0.36 | 0.28 | 91 | 1011.4 |
| 20260507111513 | 14 | 68 | 3.2 | 9.7 | 0.05 | 0.33 | 0.25 | 91 | 1011.2 |
| 20260507110020 | 14 | 30 | 4.8 | 11.3 | 0.08 | 0.33 | 0.25 | 91 | 1011.1 |
| 20260507104521 | 15 | 47 | 3.2 | 9.7 | 0.08 | 0.30 | 0.23 | 92 | 1010.6 |
| 20260507103029 | 15 | 88 | 3.2 | 12.9 | 0.13 | 0.30 | 0.23 | 92 | 1010.6 |
| 20260507101512 | 15 | 334 | 4.8 | 11.3 | 0.13 | 0.28 | 0.20 | 92 | 1010.6 |
| 20260507100017 | 15 | 56 | 1.6 | 8.0 | 0.15 | 0.25 | 0.18 | 91 | 1010.6 |
| 20260507094518 | 16 | 345 | 1.6 | 11.3 | 0.15 | 0.23 | 0.15 | 91 | 1010.3 |
| 20260507093024 | 16 | 332 | 6.4 | 11.3 | 0.10 | 0.18 | 0.10 | 90 | 1010.3 |
| 20260507091536 | 18 | 358 | 3.2 | 9.7 | 0.08 | 0.15 | 0.08 | 90 | 1010.0 |
| 20260507090012 | 19 | 339 | 0.0 | 4.8 | 0.03 | 0.10 | 0.03 | 90 | 1009.4 |
| 20260507084510 | 19 | 1 | 1.6 | 6.4 | 0.00 | 0.08 | 0.00 | 89 | 1009.4 |
| 20260507083004 | 19 | 260 | 1.6 | 4.8 | 0.00 | 0.08 | 0.00 | 89 | 1009.2 |
| 20260507081507 | 19 | 269 | 3.2 | 4.8 | 0.00 | 0.08 | 0.00 | 88 | 1009.3 |
| 20260507080009 | 19 | 254 | 3.2 | 6.4 | 0.00 | 0.08 | 0.00 | 88 | 1009.2 |
| 20260507074514 | 19 | 321 | 1.6 | 11.3 | 0.00 | 0.08 | 0.00 | 88 | 1009.4 |
| 20260507073003 | 20 | 289 | 3.2 | 11.3 | 0.00 | 0.08 | 0.00 | 88 | 1009.4 |
| 20260507071503 | 20 | 315 | 3.2 | 14.5 | 0.00 | 0.08 | 0.00 | 87 | 1009.4 |
| 20260507070011 | 20 | 155 | 4.8 | 16.1 | 0.00 | 0.08 | 0.00 | 87 | 1009.1 |
| 20260507064510 | 20 | 258 | 6.4 | 12.9 | 0.00 | 0.08 | 0.00 | 87 | 1009.0 |
| 20260507063018 | 20 | 207 | 1.6 | 9.7 | 0.00 | 0.08 | 0.00 | 87 | 1008.7 |
| 20260507061504 | 20 | 230 | 3.2 | 12.9 | 0.00 | 0.08 | 0.00 | 85 | 1008.8 |
| 20260507060017 | 21 | 224 | 4.8 | 17.7 | 0.00 | 0.08 | 0.00 | 83 | 1009.6 |
| 20260507054512 | 21 | 288 | 3.2 | 14.5 | 0.00 | 0.08 | 0.00 | 81 | 1009.7 |
| 20260507053016 | 21 | 219 | 3.2 | 9.7 | 0.00 | 0.08 | 0.00 | 81 | 1010.0 |
| 20260507051504 | 21 | 241 | 4.8 | 12.9 | 0.00 | 0.08 | 0.00 | 80 | 1010.4 |
| 20260507050017 | 21 | 207 | 4.8 | 11.3 | 0.00 | 0.08 | 0.00 | 78 | 1010.4 |
| 20260507044508 | 21 | 266 | 1.6 | 11.3 | 0.00 | 0.08 | 0.00 | 77 | 1010.6 |
| 20260507043012 | 21 | 308 | 3.2 | 11.3 | 0.00 | 0.08 | 0.00 | 77 | 1010.3 |
| 20260507041519 | 21 | 328 | 4.8 | 14.5 | 0.00 | 0.08 | 0.00 | 77 | 1009.9 |
| 20260507040004 | 21 | 232 | 3.2 | 14.5 | 0.00 | 0.08 | 0.00 | 78 | 1010.1 |
| 20260507034508 | 21 | 250 | 4.8 | 12.9 | 0.00 | 0.08 | 0.08 | 78 | 1010.2 |
| 20260507033012 | 20 | 233 | 3.2 | 8.0 | 0.00 | 0.08 | 0.08 | 79 | 1010.3 |
| 20260507031516 | 20 | 283 | 3.2 | 11.3 | 0.00 | 0.08 | 0.08 | 79 | 1009.9 |
| 20260507030021 | 20 | 219 | 4.8 | 8.0 | 0.00 | 0.08 | 0.08 | 79 | 1010.2 |
| 20260507024505 | 20 | 249 | 3.2 | 11.3 | 0.00 | 0.08 | 0.08 | 79 | 1010.2 |
| 20260507023012 | 20 | 180 | 3.2 | 8.0 | 0.00 | 0.08 | 0.08 | 80 | 1010.4 |
| 20260507021514 | 20 | 211 | 1.6 | 9.7 | 0.00 | 0.08 | 0.08 | 79 | 1010.3 |
| 20260507020018 | 20 | 243 | 1.6 | 6.4 | 0.00 | 0.08 | 0.08 | 79 | 1010.4 |
| 20260507014523 | 20 | 236 | 0.0 | 6.4 | 0.00 | 0.08 | 0.08 | 78 | 1010.4 |
| 20260507013008 | 21 | 136 | 1.6 | 4.8 | 0.00 | 0.08 | 0.08 | 77 | 1010.4 |
| 20260507011516 | 21 | 197 | 1.6 | 4.8 | 0.00 | 0.08 | 0.08 | 76 | 1010.4 |
| 20260507010028 | 21 | 278 | 1.6 | 6.4 | 0.00 | 0.08 | 0.08 | 75 | 1010.4 |
| 20260507004521 | 21 | 262 | 0.0 | 6.4 | 0.00 | 0.08 | 0.08 | 74 | 1010.6 |
| 20260507003025 | 21 | 245 | 3.2 | 12.9 | 0.00 | 0.08 | 0.08 | 73 | 1010.4 |
| 20260507001514 | 22 | 244 | 4.8 | 12.9 | 0.00 | 0.08 | 0.08 | 72 | 1010.3 |
| 20260507000019 | 22 | 284 | 3.2 | 6.4 | 0.00 | 0.08 | 0.08 | 71 | 1010.1 |
| 20260506234505 | 22 | 85 | 3.2 | 9.7 | 0.00 | 0.08 | 0.08 | 69 | 1010.0 |
| 20260506233004 | 22 | 223 | 1.6 | 11.3 | 0.00 | 0.08 | 0.08 | 68 | 1010.1 |
| 20260506231505 | 22 | 245 | 1.6 | 14.5 | 0.00 | 0.08 | 0.08 | 68 | 1009.9 |
| 20260506230004 | 23 | 323 | 3.2 | 12.9 | 0.00 | 0.08 | 0.08 | 67 | 1009.8 |
| 20260506224503 | 23 | 308 | 3.2 | 8.0 | 0.00 | 0.08 | 0.08 | 67 | 1009.7 |
| 20260506223004 | 23 | 198 | 1.6 | 8.0 | 0.00 | 0.08 | 0.08 | 67 | 1009.8 |
| 20260506221505 | 23 | 236 | 3.2 | 11.3 | 0.00 | 0.08 | 0.08 | 67 | 1009.9 |
| 20260506220004 | 23 | 211 | 3.2 | 14.5 | 0.00 | 0.08 | 0.08 | 66 | 1010.1 |
| 20260506214507 | 23 | 243 | 3.2 | 12.9 | 0.00 | 0.08 | 0.08 | 66 | 1010.0 |
| 20260506213004 | 23 | 312 | 6.4 | 12.9 | 0.00 | 0.08 | 0.08 | 66 | 1009.8 |
| 20260506211505 | 23 | 100 | 3.2 | 19.3 | 0.00 | 0.08 | 0.08 | 66 | 1010.1 |
| 20260506210006 | 23 | 248 | 3.2 | 22.5 | 0.00 | 0.08 | 0.08 | 65 | 1010.0 |
| 20260506204509 | 23 | 279 | 6.4 | 14.5 | 0.00 | 0.08 | 0.08 | 65 | 1009.9 |
| 20260506203003 | 23 | 254 | 4.8 | 17.7 | 0.00 | 0.08 | 0.08 | 65 | 1009.6 |
| 20260506201507 | 23 | 150 | 6.4 | 16.1 | 0.00 | 0.08 | 0.08 | 66 | 1009.3 |
| 20260506200010 | 23 | 227 | 3.2 | 20.9 | 0.00 | 0.08 | 0.08 | 66 | 1009.5 |
| 20260506194506 | 22 | 175 | 6.4 | 17.7 | 0.00 | 0.08 | 0.08 | 66 | 1009.9 |
| 20260506193004 | 22 | 300 | 3.2 | 17.7 | 0.00 | 0.08 | 0.08 | 68 | 1010.1 |
| 20260506191507 | 22 | 160 | 4.8 | 16.1 | 0.00 | 0.08 | 0.08 | 69 | 1010.5 |
| 20260506190010 | 21 | 161 | 1.6 | 12.9 | 0.00 | 0.08 | 0.08 | 71 | 1011.0 |
| 20260506184505 | 21 | 127 | 1.6 | 14.5 | 0.00 | 0.08 | 0.08 | 73 | 1011.4 |
| 20260506183008 | 21 | 250 | 6.4 | 17.7 | 0.00 | 0.08 | 0.08 | 74 | 1011.7 |
| 20260506181521 | 21 | 238 | 1.6 | 20.9 | 0.00 | 0.08 | 0.08 | 72 | 1011.7 |
| 20260506180010 | 22 | 225 | 4.8 | 22.5 | 0.00 | 0.08 | 0.08 | 67 | 1011.8 |
| 20260506174506 | 21 | 252 | 4.8 | 17.7 | 0.00 | 0.08 | 0.08 | 69 | 1011.6 |
| 20260506173008 | 21 | 217 | 4.8 | 14.5 | 0.00 | 0.08 | 0.08 | 71 | 1011.6 |
| 20260506171509 | 21 | 211 | 6.4 | 24.1 | 0.00 | 0.08 | 0.08 | 73 | 1011.7 |
| 20260506170006 | 20 | 260 | 3.2 | 12.9 | 0.00 | 0.08 | 0.08 | 75 | 1011.8 |
| 20260506164507 | 19 | 147 | 4.8 | 12.9 | 0.03 | 0.08 | 0.08 | 78 | 1012.4 |
| 20260506163016 | 19 | 124 | 1.6 | 9.7 | 0.05 | 0.08 | 0.08 | 81 | 1012.3 |
| 20260506161502 | 18 | 315 | 3.2 | 11.3 | 0.05 | 0.08 | 0.08 | 82 | 1012.7 |
| 20260506160004 | 18 | 175 | 1.6 | 9.7 | 0.05 | 0.08 | 0.08 | 85 | 1012.9 |
| 20260506154508 | 18 | 149 | 1.6 | 8.0 | 0.05 | 0.05 | 0.05 | 82 | 1013.1 |
| 20260506153008 | 18 | 244 | 1.6 | 9.7 | 0.03 | 0.03 | 0.03 | 80 | 1013.3 |
| 20260506151512 | 18 | 301 | 1.6 | 11.3 | 0.03 | 0.03 | 0.03 | 79 | 1013.4 |
| 20260506150012 | 19 | 229 | 6.4 | 19.3 | 0.03 | 0.03 | 0.03 | 77 | 1013.4 |
| 20260506144509 | 21 | 254 | 1.6 | 16.1 | 0.00 | 0.00 | 0.00 | 71 | 1013.7 |
| 20260506143011 | 20 | 231 | 4.8 | 12.9 | 0.00 | 0.00 | 0.00 | 69 | 1013.1 |
| 20260506141512 | 20 | 183 | 4.8 | 17.7 | 0.00 | 0.00 | 0.00 | 72 | 1013.0 |